Standish, Michigan
Current Conditions -  °F | °C
As of 12:52 PM on Tuesday 21 Oct 2014 (Local Time) from KIKW Reporting Station
Overcast Overcast  
Wind Chill: 42°   Ceiling: 2800
Heat Index: 46°   Visibility: 10mi
Dew Point: 34°   Wind: 8mph
Humidity: 64%   Direction: 20°NNE
Pressure: 30.13"   Gusts: NA
Location:  43.98°N, 83.96°W
Report Text: KIKW 211652Z AUTO 02007KT 10SM OVC028 08/01 A3013 RMK AO2 T00770013
Loading
Personal Weather Stations






























Interactive Weather Map
Tropical Storm Tracking
New forecast layout! Learn more

10-Day Weather Forecast

Advertisements
Track Severe Weather on mobile